createdAt,value
2022-11-28T00:01:27.994Z,-0.21
2022-11-28T00:03:54.860Z,-0.27
2022-11-28T00:06:21.961Z,-0.25
2022-11-28T00:08:48.869Z,-0.28
2022-11-28T00:11:17.305Z,-0.24
2022-11-28T00:13:45.176Z,-0.21
2022-11-28T00:16:18.498Z,-0.31
2022-11-28T00:18:45.252Z,-0.24
2022-11-28T00:21:13.695Z,-0.25
2022-11-28T00:23:41.940Z,-0.26
2022-11-28T00:26:16.055Z,-0.27
2022-11-28T00:28:43.205Z,-0.30
2022-11-28T00:31:19.667Z,-0.20
2022-11-28T00:33:47.034Z,-0.21
2022-11-28T00:36:14.470Z,-0.21
2022-11-28T00:38:42.065Z,-0.18
2022-11-28T00:41:11.474Z,-0.17
2022-11-28T00:43:38.123Z,-0.19
2022-11-28T00:46:05.009Z,-0.21
2022-11-28T00:48:33.346Z,-0.23
2022-11-28T00:51:12.072Z,-0.20
2022-11-28T00:53:43.080Z,-0.22
2022-11-28T00:56:15.688Z,-0.27
2022-11-28T00:58:42.947Z,-0.31
2022-11-28T01:01:15.522Z,-0.31
2022-11-28T01:03:43.417Z,-0.33
2022-11-28T01:06:11.721Z,-0.32
2022-11-28T01:08:38.471Z,-0.37
2022-11-28T01:11:12.644Z,-0.30
2022-11-28T01:13:40.427Z,-0.28
2022-11-28T01:16:08.126Z,-0.25
2022-11-28T01:18:35.182Z,-0.26
2022-11-28T01:21:01.824Z,-0.20
2022-11-28T01:23:28.528Z,-0.23
2022-11-28T01:25:55.316Z,-0.20
2022-11-28T01:28:22.038Z,-0.17
2022-11-28T01:30:48.670Z,-0.24
2022-11-28T01:33:15.420Z,-0.22
2022-11-28T01:35:42.037Z,-0.18
2022-11-28T01:38:08.742Z,-0.21
2022-11-28T01:40:35.493Z,-0.17
2022-11-28T01:43:02.161Z,-0.19
2022-11-28T01:45:33.525Z,-0.20
2022-11-28T01:48:03.190Z,-0.10
2022-11-28T01:50:33.115Z,-0.17
2022-11-28T01:53:04.284Z,-0.14
2022-11-28T01:55:35.546Z,-0.11
2022-11-28T01:58:02.338Z,-0.21
2022-11-28T02:00:29.076Z,-0.09
2022-11-28T02:03:10.466Z,-0.07
2022-11-28T02:05:37.366Z,-0.19
2022-11-28T02:08:04.439Z,-0.15
2022-11-28T02:10:57.045Z,-0.08
2022-11-28T02:13:31.788Z,-0.09
2022-11-28T02:16:28.392Z,-0.21
2022-11-28T02:19:13.152Z,-0.25
2022-11-28T02:21:52.952Z,-0.15
2022-11-28T02:24:57.236Z,-0.05
2022-11-28T02:28:01.617Z,-0.02
2022-11-28T02:30:48.467Z,0.04
2022-11-28T02:33:36.134Z,-0.01
2022-11-28T02:36:11.792Z,-0.08
2022-11-28T02:38:42.444Z,-0.10
2022-11-28T02:41:43.328Z,-0.01
2022-11-28T02:44:28.809Z,-0.06
2022-11-28T02:47:01.818Z,-0.11
2022-11-28T02:49:41.178Z,-0.15
2022-11-28T02:52:19.253Z,-0.12
2022-11-28T02:54:47.405Z,-0.11
2022-11-28T02:57:14.071Z,-0.12
2022-11-28T02:59:40.677Z,-0.12
2022-11-28T03:02:25.981Z,-0.24
2022-11-28T03:05:00.456Z,-0.20
2022-11-28T03:07:33.279Z,-0.17
2022-11-28T03:10:14.602Z,-0.23
2022-11-28T03:13:10.602Z,-0.24
2022-11-28T03:15:56.406Z,-0.17
2022-11-28T03:18:27.161Z,-0.17
2022-11-28T03:21:05.775Z,-0.18
2022-11-28T03:23:38.000Z,-0.12
2022-11-28T03:26:42.267Z,0.00
2022-11-28T03:29:35.056Z,-0.02
2022-11-28T03:32:04.131Z,-0.05
2022-11-28T03:34:35.156Z,0.02
2022-11-28T03:37:05.461Z,0.04
2022-11-28T03:39:37.207Z,0.04
2022-11-28T03:42:10.798Z,-0.07
2022-11-28T03:45:00.589Z,-0.03
2022-11-28T03:47:32.693Z,-0.09
2022-11-28T03:50:06.273Z,-0.14
2022-11-28T03:52:38.504Z,-0.13
2022-11-28T03:55:47.875Z,-0.04
2022-11-28T03:58:27.411Z,-0.02
2022-11-28T04:01:04.334Z,-0.08
2022-11-28T04:03:45.600Z,-0.02
2022-11-28T04:06:22.978Z,0.03
2022-11-28T04:09:02.534Z,-0.03
2022-11-28T04:11:54.215Z,-0.05
2022-11-28T04:14:29.599Z,-0.08
2022-11-28T04:17:19.695Z,-0.08
2022-11-28T04:20:01.208Z,-0.11
2022-11-28T04:22:32.073Z,-0.07
2022-11-28T04:25:04.644Z,-0.14
2022-11-28T04:27:37.729Z,-0.16
2022-11-28T04:30:06.596Z,-0.09
2022-11-28T04:32:36.943Z,-0.06
2022-11-28T04:35:11.915Z,-0.12
2022-11-28T04:37:41.112Z,-0.08
2022-11-28T04:40:11.818Z,-0.08
2022-11-28T04:42:52.596Z,-0.05
2022-11-28T04:45:34.499Z,-0.04
2022-11-28T04:48:01.930Z,-0.08
2022-11-28T04:50:43.553Z,-0.08
2022-11-28T04:53:21.318Z,0.00
2022-11-28T04:55:55.665Z,0.02
2022-11-28T04:58:28.755Z,0.08
2022-11-28T05:00:57.348Z,0.08
2022-11-28T05:03:28.294Z,0.08
2022-11-28T05:05:54.975Z,0.06
2022-11-28T05:08:21.651Z,0.09
2022-11-28T05:10:48.660Z,0.17
2022-11-28T05:13:15.805Z,0.18
2022-11-28T05:15:42.512Z,0.18
2022-11-28T05:18:09.401Z,0.14
2022-11-28T05:20:38.133Z,0.07
2022-11-28T05:23:05.024Z,0.08
2022-11-28T05:25:31.625Z,0.08
2022-11-28T05:27:58.269Z,0.09
2022-11-28T05:30:24.889Z,0.10
2022-11-28T05:32:51.553Z,0.12
2022-11-28T05:35:18.312Z,0.15
2022-11-28T05:37:44.964Z,0.15
2022-11-28T05:40:11.927Z,0.20
2022-11-28T05:42:38.584Z,0.19
2022-11-28T05:45:05.753Z,0.25
2022-11-28T05:47:33.270Z,0.28
2022-11-28T05:50:00.303Z,0.33
2022-11-28T05:52:29.687Z,0.38
2022-11-28T05:54:56.438Z,0.44
2022-11-28T05:57:23.116Z,0.49
2022-11-28T05:59:49.725Z,0.53
2022-11-28T06:02:16.436Z,0.48
2022-11-28T06:04:43.185Z,0.44
2022-11-28T06:07:09.911Z,0.55
2022-11-28T06:09:36.562Z,0.56
2022-11-28T06:12:03.276Z,0.62
2022-11-28T06:14:29.921Z,0.63
2022-11-28T06:16:56.757Z,0.58
2022-11-28T06:19:23.449Z,0.58
2022-11-28T06:21:50.802Z,0.62
2022-11-28T06:24:17.798Z,0.61
2022-11-28T06:26:44.561Z,0.63
2022-11-28T06:29:11.313Z,0.70
2022-11-28T06:31:38.012Z,0.64
2022-11-28T06:34:04.825Z,0.60
2022-11-28T06:36:31.500Z,0.60
2022-11-28T06:38:58.195Z,0.48
2022-11-28T06:41:24.820Z,0.41
2022-11-28T06:43:51.608Z,0.38
2022-11-28T06:46:20.632Z,0.32
2022-11-28T06:48:49.571Z,0.30
2022-11-28T06:51:17.330Z,0.32
2022-11-28T06:53:44.719Z,0.38
2022-11-28T06:56:14.321Z,0.34
2022-11-28T06:58:42.161Z,0.34
2022-11-28T07:01:19.872Z,0.36
2022-11-28T07:03:47.321Z,0.33
2022-11-28T07:06:16.359Z,0.34
2022-11-28T07:08:43.307Z,0.30
2022-11-28T07:11:09.861Z,0.33
2022-11-28T07:13:36.644Z,0.33
2022-11-28T07:16:03.921Z,0.36
2022-11-28T07:18:30.584Z,0.31
2022-11-28T07:20:57.303Z,0.36
2022-11-28T07:23:24.177Z,0.34
2022-11-28T07:25:50.772Z,0.29
2022-11-28T07:28:20.659Z,0.38
2022-11-28T07:30:49.709Z,0.40
2022-11-28T07:33:16.360Z,0.34
2022-11-28T07:35:42.995Z,0.34
2022-11-28T07:38:09.626Z,0.41
2022-11-28T07:40:36.296Z,0.46
2022-11-28T07:43:02.987Z,0.49
2022-11-28T07:45:47.391Z,0.53
2022-11-28T07:48:16.330Z,0.54
2022-11-28T07:50:42.990Z,0.47
2022-11-28T07:53:09.697Z,0.51
2022-11-28T07:55:36.614Z,0.58
2022-11-28T07:58:04.090Z,0.65
2022-11-28T08:00:31.451Z,0.66
2022-11-28T08:02:58.314Z,0.64
2022-11-28T08:05:24.974Z,0.67
2022-11-28T08:07:51.718Z,0.74
2022-11-28T08:10:18.805Z,0.80
2022-11-28T08:12:45.682Z,0.72
2022-11-28T08:15:12.374Z,0.71
2022-11-28T08:17:39.074Z,0.70
2022-11-28T08:20:06.452Z,0.83
2022-11-28T08:22:33.132Z,0.86
2022-11-28T08:24:59.748Z,0.80
2022-11-28T08:27:26.447Z,0.81
2022-11-28T08:29:53.992Z,0.83
2022-11-28T08:32:21.069Z,0.82
2022-11-28T08:34:47.678Z,0.89
2022-11-28T08:37:14.406Z,0.85
2022-11-28T08:39:41.324Z,0.80
2022-11-28T08:42:08.129Z,0.74
2022-11-28T08:44:35.000Z,0.72
2022-11-28T08:47:01.688Z,0.70
2022-11-28T08:49:28.317Z,0.79
2022-11-28T08:51:55.050Z,0.76
2022-11-28T08:54:21.684Z,0.84
2022-11-28T08:56:48.551Z,0.93
2022-11-28T08:59:15.225Z,0.95
2022-11-28T09:01:41.979Z,1.00
2022-11-28T09:04:08.838Z,0.92
2022-11-28T09:06:38.837Z,0.96
2022-11-28T09:09:05.604Z,1.03
2022-11-28T09:11:32.883Z,1.07
2022-11-28T09:14:00.152Z,1.03
2022-11-28T09:16:26.844Z,1.05
2022-11-28T09:18:54.651Z,1.07
2022-11-28T09:21:21.837Z,1.16
2022-11-28T09:23:48.596Z,1.23
2022-11-28T09:26:18.696Z,1.31
2022-11-28T09:28:46.406Z,1.27
2022-11-28T09:31:14.445Z,1.35
2022-11-28T09:33:41.833Z,1.36
2022-11-28T09:36:11.350Z,1.33
2022-11-28T09:38:38.500Z,1.28
2022-11-28T09:41:30.950Z,1.32
2022-11-28T09:44:07.240Z,1.39
2022-11-28T09:46:37.347Z,1.50
2022-11-28T09:49:18.167Z,1.55
2022-11-28T09:51:54.378Z,1.55
2022-11-28T09:54:54.248Z,1.54
2022-11-28T09:57:39.148Z,1.54
2022-11-28T10:00:11.227Z,1.50
2022-11-28T10:02:52.253Z,1.53
2022-11-28T10:05:36.050Z,1.56
2022-11-28T10:08:23.224Z,1.58
2022-11-28T10:11:04.594Z,1.60
2022-11-28T10:14:07.239Z,1.59
2022-11-28T10:17:15.887Z,1.68
2022-11-28T10:20:01.206Z,1.77
2022-11-28T10:22:42.661Z,1.80
2022-11-28T10:25:21.565Z,1.85
2022-11-28T10:27:50.500Z,1.88
2022-11-28T10:30:26.141Z,1.89
2022-11-28T10:33:24.192Z,1.99
2022-11-28T10:35:55.740Z,2.06
2022-11-28T10:38:27.437Z,2.16
2022-11-28T10:41:33.177Z,2.23
2022-11-28T10:44:14.772Z,2.24
2022-11-28T10:46:55.626Z,2.24
2022-11-28T10:49:51.679Z,2.27
2022-11-28T10:52:26.816Z,2.30
2022-11-28T10:54:56.886Z,2.39
2022-11-28T10:57:30.366Z,2.34
2022-11-28T11:00:10.737Z,2.38
2022-11-28T11:02:48.609Z,2.44
2022-11-28T11:05:27.192Z,2.51
2022-11-28T11:07:58.939Z,2.59
2022-11-28T11:10:28.454Z,2.64
2022-11-28T11:12:55.469Z,2.64
2022-11-28T11:15:31.501Z,2.67
2022-11-28T11:18:04.597Z,2.66
2022-11-28T11:20:34.024Z,2.60
2022-11-28T11:23:15.645Z,2.54
2022-11-28T11:25:58.414Z,2.51
2022-11-28T11:28:39.852Z,2.53
2022-11-28T11:31:23.541Z,2.54
2022-11-28T11:33:53.888Z,2.50
2022-11-28T11:36:27.336Z,2.57
2022-11-28T11:39:18.957Z,2.66
2022-11-28T11:42:06.889Z,2.73
2022-11-28T11:44:34.622Z,2.80
2022-11-28T11:47:04.018Z,2.82
2022-11-28T11:49:33.981Z,2.89
2022-11-28T11:52:14.522Z,2.90
2022-11-28T11:54:47.326Z,2.92
2022-11-28T11:57:32.766Z,3.03
2022-11-28T12:00:07.025Z,3.20
2022-11-28T12:02:55.770Z,3.27
2022-11-28T12:05:52.376Z,3.27
2022-11-28T12:08:31.715Z,3.32
2022-11-28T12:11:31.760Z,3.36
2022-11-28T12:14:06.228Z,3.44
2022-11-28T12:16:38.977Z,3.53
2022-11-28T12:19:14.221Z,3.61
2022-11-28T12:21:40.890Z,3.72
2022-11-28T12:24:16.470Z,3.81
2022-11-28T12:26:50.946Z,3.88
2022-11-28T12:29:54.912Z,3.97
2022-11-28T12:32:59.038Z,4.00
2022-11-28T12:35:34.598Z,4.02
2022-11-28T12:38:44.817Z,4.05
2022-11-28T12:41:35.821Z,4.11
2022-11-28T12:44:22.739Z,4.13
2022-11-28T12:47:13.907Z,4.12
2022-11-28T12:49:55.310Z,4.12
2022-11-28T12:52:30.418Z,4.08
2022-11-28T12:55:05.623Z,4.09
2022-11-28T12:57:55.824Z,4.10
2022-11-28T13:00:26.229Z,4.15
2022-11-28T13:03:14.282Z,4.21
2022-11-28T13:05:59.177Z,4.24
2022-11-28T13:08:47.948Z,4.24
2022-11-28T13:11:50.627Z,4.24
2022-11-28T13:14:34.425Z,4.24
2022-11-28T13:17:18.524Z,4.22
2022-11-28T13:20:07.328Z,4.22
2022-11-28T13:22:58.350Z,4.21
2022-11-28T13:25:39.020Z,4.21
2022-11-28T13:28:13.827Z,4.23
2022-11-28T13:30:51.402Z,4.23
2022-11-28T13:33:45.634Z,4.26
2022-11-28T13:39:33.380Z,4.18
2022-11-28T13:42:28.776Z,4.18
2022-11-28T13:45:07.371Z,4.11
2022-11-28T13:47:36.789Z,4.03
2022-11-28T13:50:22.430Z,4.02
2022-11-28T13:53:06.734Z,4.00
2022-11-28T13:55:39.707Z,3.96
2022-11-28T13:58:22.243Z,3.95
2022-11-28T14:01:06.769Z,3.97
2022-11-28T14:03:36.799Z,3.99
2022-11-28T14:06:07.329Z,3.97
2022-11-28T14:08:34.247Z,3.94
2022-11-28T14:11:27.711Z,3.86
2022-11-28T14:14:09.391Z,3.85
2022-11-28T14:16:51.975Z,3.84
2022-11-28T14:19:50.005Z,3.78
2022-11-28T14:22:41.654Z,3.73
2022-11-28T14:25:31.653Z,3.66
2022-11-28T14:28:03.939Z,3.62
2022-11-28T14:30:40.899Z,3.61
2022-11-28T14:33:18.952Z,3.60
2022-11-28T14:35:50.293Z,3.62
2022-11-28T14:38:30.101Z,3.56
2022-11-28T14:41:03.776Z,3.52
2022-11-28T14:43:35.106Z,3.44
2022-11-28T14:46:25.687Z,3.42
2022-11-28T14:48:59.414Z,3.42
2022-11-28T14:51:48.127Z,3.48
2022-11-28T14:54:22.280Z,3.42
2022-11-28T14:56:55.189Z,3.36
2022-11-28T14:59:37.240Z,3.31
2022-11-28T15:02:13.077Z,3.32
2022-11-28T15:05:19.369Z,3.33
2022-11-28T15:08:21.335Z,3.30
2022-11-28T15:11:14.612Z,3.26
2022-11-28T15:13:50.503Z,3.28
2022-11-28T15:16:20.197Z,3.33
2022-11-28T15:19:02.326Z,3.27
2022-11-28T15:21:30.020Z,3.18
2022-11-28T15:23:57.233Z,3.17
2022-11-28T15:26:29.774Z,3.14
2022-11-28T15:29:16.385Z,3.03
2022-11-28T15:31:43.600Z,2.94
2022-11-28T15:34:11.068Z,2.83
2022-11-28T15:36:39.494Z,2.80
2022-11-28T15:39:24.769Z,2.86
2022-11-28T15:41:51.710Z,2.92
2022-11-28T15:44:18.576Z,2.93
2022-11-28T15:46:45.450Z,2.97
2022-11-28T15:49:29.189Z,2.98
2022-11-28T15:51:59.822Z,3.04
2022-11-28T15:54:38.521Z,3.12
2022-11-28T15:57:06.546Z,3.14
2022-11-28T15:59:34.185Z,3.07
2022-11-28T16:02:29.956Z,3.07
2022-11-28T16:05:21.031Z,3.13
2022-11-28T16:07:50.925Z,3.15
2022-11-28T16:10:22.695Z,3.19
2022-11-28T16:12:50.747Z,3.18
2022-11-28T16:15:19.534Z,3.07
2022-11-28T16:17:46.689Z,3.00
2022-11-28T16:20:26.516Z,2.96
2022-11-28T16:22:59.549Z,2.94
2022-11-28T16:25:27.550Z,2.92
2022-11-28T16:27:57.352Z,2.90
2022-11-28T16:30:33.631Z,2.95
2022-11-28T16:33:01.003Z,2.95
2022-11-28T16:35:40.400Z,2.96
2022-11-28T16:38:27.493Z,2.87
2022-11-28T16:41:01.338Z,2.81
2022-11-28T16:43:35.870Z,2.79
2022-11-28T16:46:06.755Z,2.71
2022-11-28T16:48:46.183Z,2.70
2022-11-28T16:51:12.867Z,2.70
2022-11-28T16:53:45.002Z,2.68
2022-11-28T16:56:31.390Z,2.69
2022-11-28T16:59:02.773Z,2.67
2022-11-28T17:01:30.611Z,2.63
2022-11-28T17:03:57.903Z,2.64
2022-11-28T17:06:27.368Z,2.73
2022-11-28T17:08:55.003Z,2.77
2022-11-28T17:11:26.342Z,2.81
2022-11-28T17:13:56.174Z,2.82
2022-11-28T17:16:25.920Z,2.84
2022-11-28T17:18:53.022Z,2.89
2022-11-28T17:21:48.613Z,2.96
2022-11-28T17:24:35.915Z,2.96
2022-11-28T17:27:03.688Z,2.92
2022-11-28T17:29:30.686Z,2.94
2022-11-28T17:31:59.134Z,2.96
2022-11-28T17:34:29.223Z,2.99
2022-11-28T17:36:55.887Z,2.97
2022-11-28T17:39:22.625Z,2.97
2022-11-28T17:41:49.845Z,2.91
2022-11-28T17:44:20.122Z,2.87
2022-11-28T17:46:48.397Z,2.85
2022-11-28T17:49:15.395Z,2.87
2022-11-28T17:51:42.970Z,2.87
2022-11-28T17:54:14.019Z,2.86
2022-11-28T17:56:40.889Z,2.84
2022-11-28T17:59:10.183Z,2.90
2022-11-28T18:01:38.530Z,2.89
2022-11-28T18:04:05.348Z,2.88
2022-11-28T18:06:32.683Z,2.86
2022-11-28T18:09:00.818Z,2.91
2022-11-28T18:11:28.785Z,2.97
2022-11-28T18:13:55.688Z,3.00
2022-11-28T18:16:25.427Z,3.03
2022-11-28T18:18:52.999Z,3.06
2022-11-28T18:21:19.773Z,3.04
2022-11-28T18:23:51.977Z,3.08
2022-11-28T18:26:21.577Z,3.11
2022-11-28T18:28:48.469Z,3.13
2022-11-28T18:31:18.239Z,3.07
2022-11-28T18:33:46.798Z,3.02
2022-11-28T18:36:22.967Z,3.01
2022-11-28T18:38:50.025Z,3.00
2022-11-28T18:41:17.735Z,2.93
2022-11-28T18:43:45.365Z,2.88
2022-11-28T18:46:19.039Z,2.86
2022-11-28T18:48:47.443Z,2.84
2022-11-28T18:51:20.022Z,2.81
2022-11-28T18:53:48.424Z,2.88
2022-11-28T18:56:15.644Z,2.90
2022-11-28T18:58:46.418Z,2.85
2022-11-28T19:01:19.125Z,2.81
2022-11-28T19:03:53.013Z,2.77
2022-11-28T19:06:19.967Z,2.79
2022-11-28T19:08:48.686Z,2.82
2022-11-28T19:11:17.326Z,2.84
2022-11-28T19:13:45.849Z,2.87
2022-11-28T19:16:16.903Z,2.88
2022-11-28T19:18:44.006Z,2.83
2022-11-28T19:21:16.312Z,2.80
2022-11-28T19:23:43.344Z,2.79
2022-11-28T19:26:12.961Z,2.82
2022-11-28T19:28:41.176Z,2.88
2022-11-28T19:31:15.333Z,2.88
2022-11-28T19:33:43.990Z,2.86
2022-11-28T19:36:13.028Z,2.86
2022-11-28T19:38:40.346Z,2.89
2022-11-28T19:41:12.123Z,2.89
2022-11-28T19:43:39.361Z,2.93
2022-11-28T19:46:06.789Z,2.96
2022-11-28T19:48:36.223Z,3.00
2022-11-28T19:51:04.107Z,2.97
2022-11-28T19:53:32.574Z,2.97
2022-11-28T19:56:11.954Z,3.01
2022-11-28T19:58:39.878Z,3.00
2022-11-28T20:01:25.209Z,2.97
2022-11-28T20:03:53.623Z,2.93
2022-11-28T20:06:24.229Z,2.79
2022-11-28T20:08:52.574Z,2.70
2022-11-28T20:11:28.762Z,2.67
2022-11-28T20:14:10.900Z,2.64
2022-11-28T20:16:39.462Z,2.66
2022-11-28T20:19:06.740Z,2.71
2022-11-28T20:21:34.637Z,2.70
2022-11-28T20:24:07.285Z,2.69
2022-11-28T20:26:40.862Z,2.69
2022-11-28T20:29:10.701Z,2.71
2022-11-28T20:31:45.110Z,2.76
2022-11-28T20:34:13.809Z,2.78
2022-11-28T20:36:43.700Z,2.74
2022-11-28T20:39:11.898Z,2.68
2022-11-28T20:41:38.579Z,2.61
2022-11-28T20:44:05.509Z,2.67
2022-11-28T20:46:36.011Z,2.69
2022-11-28T20:49:06.259Z,2.79
2022-11-28T20:51:34.475Z,2.88
2022-11-28T20:54:02.049Z,2.87
2022-11-28T20:56:30.339Z,2.85
2022-11-28T20:59:02.117Z,2.81
2022-11-28T21:01:34.461Z,2.73
2022-11-28T21:04:02.494Z,2.87
2022-11-28T21:06:29.861Z,2.87
2022-11-28T21:08:57.383Z,2.86
2022-11-28T21:11:55.098Z,2.89
2022-11-28T21:14:14.235Z,2.86
2022-11-28T21:16:41.810Z,2.88
2022-11-28T21:19:09.542Z,2.95
2022-11-28T21:21:39.011Z,2.98
2022-11-28T21:24:10.482Z,3.02
2022-11-28T21:26:42.179Z,3.06
2022-11-28T21:29:12.467Z,3.10
2022-11-28T21:31:43.204Z,3.14
2022-11-28T21:34:16.963Z,3.16
2022-11-28T21:36:44.636Z,3.22
2022-11-28T21:39:17.866Z,3.20
2022-11-28T21:41:44.656Z,3.15
2022-11-28T21:44:11.666Z,3.16
2022-11-28T21:46:38.604Z,3.20
2022-11-28T21:49:05.748Z,3.26
2022-11-28T21:51:39.585Z,3.27
2022-11-28T21:54:07.716Z,3.24
2022-11-28T21:56:34.398Z,3.24
2022-11-28T21:59:01.122Z,3.19
2022-11-28T22:01:28.794Z,3.26
2022-11-28T22:04:02.174Z,3.21
2022-11-28T22:06:30.154Z,3.16
2022-11-28T22:08:57.946Z,3.21
2022-11-28T22:11:25.631Z,3.26
2022-11-28T22:13:52.925Z,3.26
2022-11-28T22:16:28.432Z,3.34
2022-11-28T22:18:59.198Z,3.34
2022-11-28T22:21:56.074Z,3.32
2022-11-28T22:24:14.213Z,3.33
2022-11-28T22:26:41.238Z,3.35
2022-11-28T22:29:08.347Z,3.24
2022-11-28T22:31:36.107Z,3.29
2022-11-28T22:34:03.280Z,3.24
2022-11-28T22:36:32.656Z,3.19
2022-11-28T22:39:00.032Z,3.20
2022-11-28T22:41:29.794Z,3.25
2022-11-28T22:44:01.191Z,3.26
2022-11-28T22:46:30.376Z,3.28
2022-11-28T22:49:00.312Z,3.28
2022-11-28T22:51:28.382Z,3.30
2022-11-28T22:54:00.558Z,3.31
2022-11-28T22:56:29.713Z,3.31
2022-11-28T22:58:57.918Z,3.34
2022-11-28T23:01:29.175Z,3.40
2022-11-28T23:03:58.556Z,3.34
2022-11-28T23:06:28.410Z,3.32
2022-11-28T23:08:57.413Z,3.28
2022-11-28T23:11:29.000Z,3.29
2022-11-28T23:13:56.504Z,3.27
2022-11-28T23:16:46.411Z,3.23
2022-11-28T23:19:16.881Z,3.27
2022-11-28T23:21:45.826Z,3.28
2022-11-28T23:24:24.173Z,3.21
2022-11-28T23:26:52.898Z,3.40
2022-11-28T23:29:21.378Z,3.46
2022-11-28T23:31:49.158Z,3.40
2022-11-28T23:34:16.806Z,3.44
2022-11-28T23:36:46.070Z,3.45
2022-11-28T23:39:18.958Z,3.40
2022-11-28T23:41:45.905Z,3.44
2022-11-28T23:44:14.009Z,3.47
2022-11-28T23:46:41.449Z,3.44
2022-11-28T23:49:08.300Z,3.42
2022-11-28T23:51:35.715Z,3.37
2022-11-28T23:54:02.510Z,3.40
2022-11-28T23:56:31.570Z,3.29
2022-11-28T23:59:01.414Z,3.42
